createdAt,value
2022-10-14T00:00:37.552Z,0
2022-10-14T00:01:40.166Z,0
2022-10-14T00:02:42.989Z,0
2022-10-14T00:03:45.893Z,0
2022-10-14T00:04:48.666Z,0
2022-10-14T00:05:51.443Z,0
2022-10-14T00:06:54.154Z,0
2022-10-14T00:07:57.242Z,0
2022-10-14T00:09:01.358Z,0
2022-10-14T00:10:04.507Z,0
2022-10-14T00:11:08.300Z,0
2022-10-14T00:12:11.285Z,0
2022-10-14T00:13:14.146Z,0
2022-10-14T00:14:17.312Z,0
2022-10-14T00:15:20.181Z,0
2022-10-14T00:16:23.789Z,0
2022-10-14T00:17:27.136Z,0
2022-10-14T00:18:30.039Z,0
2022-10-14T00:19:33.221Z,0
2022-10-14T00:20:36.398Z,0
2022-10-14T00:21:39.660Z,0
2022-10-14T00:22:43.116Z,0
2022-10-14T00:23:45.382Z,0
2022-10-14T00:24:49.486Z,0
2022-10-14T00:25:52.632Z,0
2022-10-14T00:26:55.710Z,0
2022-10-14T00:27:58.700Z,0
2022-10-14T00:29:01.781Z,0
2022-10-14T00:30:04.850Z,0
2022-10-14T00:31:07.635Z,0
2022-10-14T00:32:10.785Z,0
2022-10-14T00:33:13.654Z,0
2022-10-14T00:34:16.642Z,0
2022-10-14T00:35:19.500Z,0
2022-10-14T00:36:22.656Z,0
2022-10-14T00:37:26.001Z,0
2022-10-14T00:38:28.542Z,0
2022-10-14T00:39:30.996Z,0
2022-10-14T00:40:35.153Z,0
2022-10-14T00:41:38.536Z,0
2022-10-14T00:42:42.337Z,0
2022-10-14T00:43:45.761Z,0
2022-10-14T00:44:49.028Z,0
2022-10-14T00:45:51.729Z,0
2022-10-14T00:46:54.248Z,0
2022-10-14T00:47:57.204Z,0
2022-10-14T00:48:59.719Z,0
2022-10-14T00:50:02.304Z,0
2022-10-14T00:51:05.269Z,0
2022-10-14T00:52:09.281Z,0
2022-10-14T00:53:12.418Z,0
2022-10-14T00:54:15.693Z,0
2022-10-14T00:55:18.337Z,0
2022-10-14T00:56:22.461Z,0
2022-10-14T00:57:24.900Z,0
2022-10-14T00:58:27.772Z,0
2022-10-14T00:59:30.604Z,0
2022-10-14T01:00:32.808Z,0
2022-10-14T01:01:36.517Z,0
2022-10-14T01:02:39.419Z,0
2022-10-14T01:03:42.135Z,0
2022-10-14T01:04:45.240Z,0
2022-10-14T01:05:47.199Z,0
2022-10-14T01:06:50.006Z,0
2022-10-14T01:07:52.876Z,0
2022-10-14T01:08:56.213Z,0
2022-10-14T01:09:59.216Z,0
2022-10-14T01:11:02.666Z,0
2022-10-14T01:13:40.020Z,0
2022-10-14T01:14:43.660Z,0
2022-10-14T01:15:45.898Z,0
2022-10-14T01:16:48.765Z,0
2022-10-14T01:17:51.946Z,0
2022-10-14T01:18:55.396Z,0
2022-10-14T01:19:58.750Z,0
2022-10-14T01:21:01.817Z,0
2022-10-14T01:22:04.687Z,0
2022-10-14T01:23:08.692Z,0
2022-10-14T01:24:11.864Z,0
2022-10-14T01:25:15.012Z,0
2022-10-14T01:26:18.510Z,0
2022-10-14T01:27:22.676Z,0
2022-10-14T01:28:25.449Z,0
2022-10-14T01:29:28.892Z,0
2022-10-14T01:30:32.031Z,0
2022-10-14T01:31:34.788Z,0
2022-10-14T01:32:37.788Z,0
2022-10-14T01:33:40.674Z,0
2022-10-14T01:34:43.458Z,0
2022-10-14T01:35:46.435Z,0
2022-10-14T01:36:49.502Z,0
2022-10-14T01:37:52.940Z,0
2022-10-14T01:38:56.130Z,0
2022-10-14T01:39:59.551Z,0
2022-10-14T01:41:02.476Z,0
2022-10-14T01:42:06.512Z,0
2022-10-14T01:43:10.612Z,0
2022-10-14T01:44:14.143Z,0
2022-10-14T01:45:17.007Z,0
2022-10-14T01:46:20.152Z,0
2022-10-14T01:47:23.577Z,0
2022-10-14T01:48:27.276Z,0
2022-10-14T01:49:30.129Z,0
2022-10-14T01:50:33.563Z,0
2022-10-14T01:51:37.093Z,0
2022-10-14T01:52:40.098Z,0
2022-10-14T01:53:42.205Z,0
2022-10-14T01:54:44.786Z,0
2022-10-14T01:55:47.773Z,0
2022-10-14T01:56:51.042Z,0
2022-10-14T01:57:54.139Z,0
2022-10-14T01:58:58.247Z,0
2022-10-14T02:00:01.331Z,0
2022-10-14T02:01:04.456Z,0
2022-10-14T02:02:06.963Z,0
2022-10-14T02:03:10.485Z,0
2022-10-14T02:04:13.702Z,0
2022-10-14T02:05:16.973Z,0
2022-10-14T02:06:19.403Z,0
2022-10-14T02:07:22.486Z,0
2022-10-14T02:08:25.868Z,0
2022-10-14T02:09:29.522Z,0
2022-10-14T02:10:32.345Z,0
2022-10-14T02:11:35.501Z,0
2022-10-14T02:12:38.503Z,0
2022-10-14T02:13:41.056Z,0
2022-10-14T02:14:45.170Z,0
2022-10-14T02:15:48.330Z,0
2022-10-14T02:16:51.201Z,0
2022-10-14T02:17:54.288Z,0
2022-10-14T02:18:57.944Z,0
2022-10-14T02:20:00.690Z,0
2022-10-14T02:21:04.123Z,0
2022-10-14T02:22:07.184Z,0
2022-10-14T02:23:10.630Z,0
2022-10-14T02:24:13.704Z,0
2022-10-14T02:25:16.883Z,0
2022-10-14T02:26:20.330Z,0
2022-10-14T02:27:23.403Z,0
2022-10-14T02:28:26.540Z,0
2022-10-14T02:29:30.043Z,0
2022-10-14T02:30:34.204Z,0
2022-10-14T02:31:37.372Z,0
2022-10-14T02:32:39.889Z,0
2022-10-14T02:33:41.870Z,0
2022-10-14T02:34:44.122Z,0
2022-10-14T02:35:46.995Z,0
2022-10-14T02:36:50.446Z,0
2022-10-14T02:37:53.042Z,0
2022-10-14T02:38:55.846Z,0
2022-10-14T02:39:58.759Z,0
2022-10-14T02:41:01.457Z,0
2022-10-14T02:42:04.322Z,0
2022-10-14T02:43:08.063Z,0
2022-10-14T02:44:10.915Z,0
2022-10-14T02:45:13.812Z,0
2022-10-14T02:46:17.971Z,0
2022-10-14T02:47:20.947Z,0
2022-10-14T02:48:24.375Z,0
2022-10-14T02:49:27.520Z,0
2022-10-14T02:50:30.897Z,0
2022-10-14T02:51:33.759Z,0
2022-10-14T02:52:37.003Z,0
2022-10-14T02:53:40.353Z,0
2022-10-14T02:54:43.178Z,0
2022-10-14T02:55:46.615Z,0
2022-10-14T02:56:49.879Z,0
2022-10-14T02:57:53.119Z,0
2022-10-14T02:58:56.179Z,0
2022-10-14T02:59:59.629Z,0
2022-10-14T03:01:03.279Z,0
2022-10-14T03:02:07.470Z,0
2022-10-14T03:03:10.664Z,0
2022-10-14T03:04:13.938Z,0
2022-10-14T03:05:16.802Z,0
2022-10-14T03:06:19.241Z,0
2022-10-14T03:07:22.335Z,0
2022-10-14T03:08:25.048Z,0
2022-10-14T03:09:28.141Z,0
2022-10-14T03:10:31.486Z,0
2022-10-14T03:11:34.208Z,0
2022-10-14T03:12:37.000Z,0
2022-10-14T03:13:39.919Z,0
2022-10-14T03:14:43.072Z,0
2022-10-14T03:15:46.236Z,0
2022-10-14T03:16:49.162Z,0
2022-10-14T03:17:53.325Z,0
2022-10-14T03:18:55.853Z,0
2022-10-14T03:19:58.818Z,0
2022-10-14T03:21:02.006Z,0
2022-10-14T03:22:05.167Z,0
2022-10-14T03:23:08.236Z,0
2022-10-14T03:24:11.313Z,0
2022-10-14T03:25:13.461Z,0
2022-10-14T03:26:16.344Z,0
2022-10-14T03:27:18.858Z,0
2022-10-14T03:28:22.341Z,0
2022-10-14T03:29:25.516Z,0
2022-10-14T03:30:29.171Z,0
2022-10-14T03:31:31.964Z,0
2022-10-14T03:32:34.804Z,0
2022-10-14T03:33:38.925Z,0
2022-10-14T03:34:42.110Z,0
2022-10-14T03:35:45.378Z,0
2022-10-14T03:36:47.984Z,0
2022-10-14T03:37:51.044Z,0
2022-10-14T03:38:54.650Z,0
2022-10-14T03:39:57.707Z,0
2022-10-14T03:41:00.280Z,0
2022-10-14T03:42:03.154Z,0
2022-10-14T03:43:06.877Z,0
2022-10-14T03:44:10.113Z,0
2022-10-14T03:45:13.570Z,0
2022-10-14T03:46:16.004Z,0
2022-10-14T03:47:18.956Z,0
2022-10-14T03:48:22.330Z,0
2022-10-14T03:49:26.522Z,0
2022-10-14T03:50:29.551Z,0
2022-10-14T03:51:32.170Z,0
2022-10-14T03:52:34.979Z,0
2022-10-14T03:53:38.325Z,0
2022-10-14T03:54:41.567Z,0
2022-10-14T03:55:44.442Z,0
2022-10-14T03:56:47.632Z,0
2022-10-14T03:57:50.429Z,0
2022-10-14T03:58:53.216Z,0
2022-10-14T03:59:55.998Z,0
2022-10-14T04:00:58.941Z,0
2022-10-14T04:02:01.139Z,0
2022-10-14T04:03:04.273Z,0
2022-10-14T04:04:07.089Z,0
2022-10-14T04:05:11.267Z,0
2022-10-14T04:06:13.983Z,0
2022-10-14T04:07:17.077Z,0
2022-10-14T04:08:20.070Z,0
2022-10-14T04:09:23.220Z,0
2022-10-14T04:10:26.570Z,0
2022-10-14T04:11:30.076Z,0
2022-10-14T04:12:33.254Z,0
2022-10-14T04:13:35.974Z,0
2022-10-14T04:14:39.144Z,0
2022-10-14T04:15:41.865Z,0
2022-10-14T04:16:49.582Z,0
2022-10-14T04:17:52.994Z,0
2022-10-14T04:18:55.258Z,0
2022-10-14T04:19:59.007Z,0
2022-10-14T04:21:03.178Z,0
2022-10-14T04:22:06.343Z,0
2022-10-14T04:23:09.149Z,0
2022-10-14T04:24:11.732Z,0
2022-10-14T04:25:14.803Z,0
2022-10-14T04:26:17.872Z,0
2022-10-14T04:27:21.225Z,0
2022-10-14T04:28:24.009Z,0
2022-10-14T04:29:27.340Z,0
2022-10-14T04:30:31.036Z,0
2022-10-14T04:31:33.763Z,0
2022-10-14T04:32:36.558Z,0
2022-10-14T04:33:39.352Z,0
2022-10-14T04:34:42.228Z,0
2022-10-14T04:35:45.139Z,0
2022-10-14T04:36:49.298Z,0
2022-10-14T04:37:52.395Z,0
2022-10-14T04:38:55.550Z,0
2022-10-14T04:39:58.340Z,0
2022-10-14T04:41:01.414Z,0
2022-10-14T04:42:03.925Z,0
2022-10-14T04:43:06.804Z,0
2022-10-14T04:44:09.881Z,0
2022-10-14T04:45:13.156Z,0
2022-10-14T04:46:16.604Z,0
2022-10-14T04:47:19.698Z,0
2022-10-14T04:48:23.203Z,0
2022-10-14T04:49:26.557Z,0
2022-10-14T04:50:29.978Z,0
2022-10-14T04:51:33.070Z,0
2022-10-14T04:52:37.184Z,0
2022-10-14T04:53:39.971Z,0
2022-10-14T04:54:43.409Z,0
2022-10-14T04:55:46.548Z,0
2022-10-14T04:56:50.012Z,0
2022-10-14T04:57:53.187Z,0
2022-10-14T04:58:55.906Z,0
2022-10-14T04:59:59.094Z,0
2022-10-14T05:01:02.170Z,0
2022-10-14T05:02:05.164Z,0
2022-10-14T05:03:09.082Z,0
2022-10-14T05:04:11.876Z,0
2022-10-14T05:05:15.318Z,0
2022-10-14T05:06:18.104Z,0
2022-10-14T05:07:21.566Z,0
2022-10-14T05:08:25.779Z,0
2022-10-14T05:09:28.948Z,4
2022-10-14T05:10:32.449Z,4
2022-10-14T05:11:36.014Z,0
2022-10-14T05:12:38.807Z,4
2022-10-14T05:13:41.197Z,4
2022-10-14T05:14:44.102Z,4
2022-10-14T05:15:47.252Z,4
2022-10-14T05:16:50.669Z,8
2022-10-14T05:17:54.454Z,8
2022-10-14T05:18:57.903Z,8
2022-10-14T05:20:00.979Z,12
2022-10-14T05:21:03.601Z,16
2022-10-14T05:22:06.405Z,16
2022-10-14T05:23:09.960Z,24
2022-10-14T05:24:14.057Z,28
2022-10-14T05:25:17.207Z,32
2022-10-14T05:26:20.326Z,40
2022-10-14T05:27:23.746Z,52
2022-10-14T05:28:27.206Z,64
2022-10-14T05:29:31.007Z,72
2022-10-14T05:30:34.957Z,80
2022-10-14T05:31:37.654Z,84
2022-10-14T05:32:40.533Z,88
2022-10-14T05:33:43.693Z,92
2022-10-14T05:34:46.127Z,100
2022-10-14T05:36:04.375Z,116
2022-10-14T05:37:07.764Z,148
2022-10-14T05:38:10.556Z,156
2022-10-14T05:39:14.053Z,156
2022-10-14T05:40:18.238Z,156
2022-10-14T05:41:21.425Z,156
2022-10-14T05:42:25.043Z,160
2022-10-14T05:43:32.296Z,152
2022-10-14T05:44:36.270Z,160
2022-10-14T05:45:39.331Z,188
2022-10-14T05:46:43.346Z,212
2022-10-14T05:47:46.066Z,228
2022-10-14T05:48:49.405Z,256
2022-10-14T05:49:52.301Z,268
2022-10-14T05:50:54.926Z,264
2022-10-14T05:51:58.065Z,244
2022-10-14T05:53:01.588Z,244
2022-10-14T05:54:05.042Z,280
2022-10-14T05:55:08.222Z,316
2022-10-14T05:56:12.323Z,356
2022-10-14T05:57:14.916Z,384
2022-10-14T05:58:18.640Z,404
2022-10-14T05:59:21.441Z,416
2022-10-14T06:00:25.838Z,424
2022-10-14T06:01:28.917Z,444
2022-10-14T06:02:32.580Z,440
2022-10-14T06:03:35.444Z,412
2022-10-14T06:04:38.242Z,396
2022-10-14T06:05:40.754Z,420
2022-10-14T06:06:44.411Z,476
2022-10-14T06:07:48.207Z,536
2022-10-14T06:08:51.074Z,552
2022-10-14T06:09:54.140Z,732
2022-10-14T06:10:57.254Z,780
2022-10-14T06:12:01.469Z,808
2022-10-14T06:13:04.072Z,820
2022-10-14T06:14:07.233Z,1044
2022-10-14T06:15:09.833Z,1264
2022-10-14T06:16:12.903Z,1460
2022-10-14T06:17:17.501Z,1456
2022-10-14T06:18:20.622Z,1476
2022-10-14T06:19:23.764Z,1352
2022-10-14T06:20:27.202Z,1704
2022-10-14T06:21:30.034Z,1948
2022-10-14T06:22:33.190Z,2140
2022-10-14T06:23:36.480Z,1796
2022-10-14T06:24:39.629Z,1768
2022-10-14T06:25:43.290Z,1640
2022-10-14T06:26:46.530Z,1600
2022-10-14T06:27:50.668Z,1536
2022-10-14T06:28:54.060Z,1728
2022-10-14T06:29:57.668Z,1880
2022-10-14T06:31:01.102Z,2408
2022-10-14T06:32:03.705Z,2628
2022-10-14T06:33:07.059Z,3508
2022-10-14T06:34:10.127Z,3520
2022-10-14T06:35:13.770Z,3684
2022-10-14T06:36:16.401Z,4056
2022-10-14T06:37:19.277Z,4584
2022-10-14T06:38:22.734Z,5140
2022-10-14T06:39:26.261Z,5652
2022-10-14T06:40:29.372Z,5892
2022-10-14T06:41:32.349Z,6024
2022-10-14T06:42:36.077Z,5816
2022-10-14T06:43:40.195Z,5332
2022-10-14T06:44:43.041Z,4820
2022-10-14T06:45:46.017Z,4384
2022-10-14T06:46:49.485Z,4048
2022-10-14T06:47:52.341Z,4068
2022-10-14T06:48:55.041Z,4488
2022-10-14T06:49:58.501Z,4752
2022-10-14T06:51:01.109Z,4220
2022-10-14T06:52:04.554Z,3776
2022-10-14T06:53:08.206Z,3796
2022-10-14T06:54:11.081Z,3728
2022-10-14T06:55:14.424Z,3664
2022-10-14T06:56:17.785Z,3572
2022-10-14T06:57:20.924Z,3632
2022-10-14T06:58:23.963Z,3652
2022-10-14T06:59:28.222Z,3600
2022-10-14T07:00:31.016Z,3632
2022-10-14T07:01:34.091Z,3808
2022-10-14T07:02:38.077Z,4028
2022-10-14T07:03:40.914Z,4476
2022-10-14T07:04:43.906Z,4808
2022-10-14T07:05:47.160Z,5184
2022-10-14T07:06:50.232Z,5592
2022-10-14T07:07:53.378Z,5856
2022-10-14T07:08:56.729Z,5504
2022-10-14T07:09:59.718Z,5708
2022-10-14T07:11:02.501Z,4988
2022-10-14T07:12:05.007Z,5184
2022-10-14T07:13:07.814Z,5712
2022-10-14T07:14:11.215Z,6224
2022-10-14T07:15:15.400Z,7544
2022-10-14T07:16:18.208Z,8728
2022-10-14T07:17:21.586Z,10092
2022-10-14T07:18:26.397Z,10632
2022-10-14T07:19:29.667Z,9836
2022-10-14T07:20:32.537Z,8292
2022-10-14T07:21:35.334Z,7028
2022-10-14T07:22:39.032Z,6080
2022-10-14T07:23:42.207Z,4512
2022-10-14T07:24:44.934Z,4940
2022-10-14T07:25:47.763Z,5232
2022-10-14T07:26:51.628Z,4396
2022-10-14T07:27:55.155Z,3500
2022-10-14T07:28:58.356Z,3048
2022-10-14T07:30:02.273Z,2960
2022-10-14T07:31:06.407Z,3184
2022-10-14T07:32:09.881Z,3224
2022-10-14T07:33:12.670Z,3008
2022-10-14T07:34:15.938Z,2636
2022-10-14T07:35:19.360Z,2280
2022-10-14T07:36:22.763Z,2144
2022-10-14T07:37:26.084Z,2124
2022-10-14T07:38:29.227Z,1856
2022-10-14T07:39:32.302Z,1520
2022-10-14T07:40:35.041Z,1576
2022-10-14T07:41:38.222Z,2048
2022-10-14T07:42:41.125Z,2124
2022-10-14T07:43:44.598Z,2064
2022-10-14T07:44:47.844Z,1928
2022-10-14T07:45:51.006Z,1864
2022-10-14T07:46:55.219Z,1508
2022-10-14T07:47:58.209Z,1324
2022-10-14T07:49:01.079Z,1284
2022-10-14T07:50:04.806Z,1304
2022-10-14T07:51:08.083Z,1292
2022-10-14T07:52:10.794Z,1284
2022-10-14T07:53:14.404Z,1268
2022-10-14T07:54:17.561Z,1308
2022-10-14T07:55:20.719Z,1332
2022-10-14T07:56:23.293Z,1460
2022-10-14T07:57:26.265Z,1592
2022-10-14T07:58:29.439Z,1740
2022-10-14T07:59:32.779Z,1784
2022-10-14T08:00:36.740Z,1832
2022-10-14T08:01:39.499Z,1868
2022-10-14T08:02:44.287Z,2104
2022-10-14T08:03:47.703Z,2132
2022-10-14T08:04:50.751Z,2128
2022-10-14T08:05:52.980Z,2136
2022-10-14T08:06:56.137Z,2240
2022-10-14T08:07:59.261Z,2456
2022-10-14T08:09:02.376Z,2512
2022-10-14T08:10:05.543Z,2456
2022-10-14T08:11:08.514Z,2396
2022-10-14T08:12:11.341Z,2228
2022-10-14T08:13:14.510Z,2156
2022-10-14T08:14:18.311Z,2088
2022-10-14T08:15:21.492Z,1948
2022-10-14T08:16:24.294Z,1728
2022-10-14T08:17:27.138Z,1752
2022-10-14T08:18:31.251Z,1832
2022-10-14T08:19:34.346Z,2012
2022-10-14T08:20:37.246Z,2240
2022-10-14T08:21:40.701Z,2468
2022-10-14T08:22:43.909Z,2488
2022-10-14T08:23:46.153Z,2452
2022-10-14T08:24:49.261Z,2464
2022-10-14T08:25:52.421Z,2420
2022-10-14T08:26:55.298Z,2460
2022-10-14T08:27:57.942Z,2284
2022-10-14T08:29:00.819Z,2304
2022-10-14T08:30:08.644Z,2096
2022-10-14T08:31:14.614Z,2180
2022-10-14T08:32:17.339Z,2364
2022-10-14T08:33:21.294Z,2840
2022-10-14T08:34:25.490Z,3132
2022-10-14T08:35:28.655Z,3028
2022-10-14T08:36:31.197Z,3280
2022-10-14T08:37:34.630Z,3364
2022-10-14T08:38:37.514Z,3320
2022-10-14T08:39:40.762Z,3272
2022-10-14T08:40:43.850Z,3436
2022-10-14T08:41:46.717Z,3904
2022-10-14T08:42:49.309Z,4476
2022-10-14T08:43:52.766Z,4288
2022-10-14T08:44:55.844Z,4360
2022-10-14T08:45:59.334Z,4352
2022-10-14T08:47:02.224Z,4244
2022-10-14T08:48:05.654Z,4516
2022-10-14T08:49:08.747Z,4360
2022-10-14T08:50:12.900Z,4144
2022-10-14T08:51:16.332Z,3932
2022-10-14T08:52:19.688Z,3956
2022-10-14T08:53:25.364Z,4520
2022-10-14T08:54:28.470Z,4552
2022-10-14T08:55:31.416Z,4304
2022-10-14T08:56:35.143Z,4800
2022-10-14T08:57:38.296Z,4608
2022-10-14T08:58:40.530Z,4612
2022-10-14T08:59:43.342Z,5940
2022-10-14T09:00:46.696Z,7744
2022-10-14T09:01:50.155Z,7532
2022-10-14T09:02:53.603Z,6892
2022-10-14T09:03:57.350Z,7328
2022-10-14T09:05:00.823Z,7496
2022-10-14T09:06:05.066Z,7528
2022-10-14T09:07:08.375Z,7888
2022-10-14T09:08:11.165Z,7720
2022-10-14T09:09:14.521Z,8212
2022-10-14T09:10:17.516Z,7992
2022-10-14T09:11:20.456Z,7848
2022-10-14T09:12:24.474Z,8116
2022-10-14T09:13:28.402Z,7036
2022-10-14T09:14:31.507Z,6576
2022-10-14T09:15:34.034Z,5804
2022-10-14T09:16:37.185Z,5044
2022-10-14T09:17:39.992Z,4916
2022-10-14T09:18:43.496Z,5304
2022-10-14T09:19:46.015Z,6640
2022-10-14T09:20:48.854Z,6744
2022-10-14T09:21:53.588Z,6364
2022-10-14T09:22:57.112Z,5304
2022-10-14T09:24:00.514Z,4904
2022-10-14T09:25:04.040Z,5060
2022-10-14T09:26:07.390Z,4516
2022-10-14T09:27:10.553Z,4364
2022-10-14T09:28:14.593Z,5068
2022-10-14T09:29:17.374Z,5004
2022-10-14T09:30:21.031Z,3860
2022-10-14T09:31:24.403Z,3228
2022-10-14T09:32:27.748Z,3280
2022-10-14T09:33:31.131Z,3080
2022-10-14T09:34:34.000Z,3600
2022-10-14T09:35:37.359Z,4064
2022-10-14T09:36:40.580Z,4504
2022-10-14T09:37:45.102Z,4076
2022-10-14T09:38:48.007Z,4080
2022-10-14T09:39:51.441Z,4392
2022-10-14T09:40:55.181Z,3476
2022-10-14T09:41:57.411Z,2744
2022-10-14T09:43:00.565Z,2372
2022-10-14T09:44:03.004Z,4172
2022-10-14T09:46:10.976Z,4944
2022-10-14T09:47:13.694Z,5908
2022-10-14T09:48:16.417Z,5744
2022-10-14T09:49:18.733Z,5544
2022-10-14T09:50:22.468Z,3688
2022-10-14T09:51:25.835Z,3440
2022-10-14T09:52:28.925Z,3556
2022-10-14T09:53:33.107Z,3408
2022-10-14T09:54:35.350Z,3404
2022-10-14T09:55:38.014Z,3628
2022-10-14T09:56:42.084Z,3856
2022-10-14T09:57:45.541Z,4464
2022-10-14T09:58:48.970Z,5264
2022-10-14T09:59:51.586Z,6700
2022-10-14T10:00:54.745Z,8572
2022-10-14T10:01:57.845Z,9236
2022-10-14T10:03:01.016Z,10596
2022-10-14T10:04:03.891Z,9160
2022-10-14T10:05:07.324Z,8036
2022-10-14T10:06:10.722Z,5872
2022-10-14T10:07:13.878Z,5088
2022-10-14T10:08:17.482Z,4776
2022-10-14T10:09:21.710Z,5700
2022-10-14T10:10:25.132Z,7484
2022-10-14T10:11:28.279Z,9308
2022-10-14T10:12:31.387Z,10828
2022-10-14T10:13:34.810Z,10684
2022-10-14T10:14:38.168Z,10104
2022-10-14T10:15:41.526Z,11388
2022-10-14T10:16:44.406Z,13576
2022-10-14T10:17:47.909Z,21152
2022-10-14T10:18:50.625Z,23168
2022-10-14T10:19:53.763Z,23904
2022-10-14T10:20:57.100Z,27328
2022-10-14T10:22:00.715Z,32640
2022-10-14T10:23:03.848Z,46528
2022-10-14T10:24:06.671Z,30368
2022-10-14T10:25:10.800Z,27392
2022-10-14T10:26:13.622Z,29984
2022-10-14T10:27:17.093Z,35584
2022-10-14T10:28:20.571Z,39840
2022-10-14T10:29:23.699Z,59648
2022-10-14T10:30:26.423Z,116864
2022-10-14T10:31:29.202Z,109888
2022-10-14T10:32:33.582Z,139744
2022-10-14T10:33:36.995Z,152064
2022-10-14T10:34:40.146Z,208608
2022-10-14T10:35:43.657Z,117664
2022-10-14T10:36:46.249Z,197792
2022-10-14T10:37:49.977Z,174304
2022-10-14T10:38:52.691Z,189760
2022-10-14T10:39:56.495Z,160224
2022-10-14T10:41:00.739Z,96352
2022-10-14T10:42:03.646Z,51168
2022-10-14T10:43:06.565Z,40320
2022-10-14T10:44:10.204Z,59104
2022-10-14T10:45:13.958Z,167616
2022-10-14T10:46:16.997Z,29024
2022-10-14T10:47:20.076Z,13728
2022-10-14T10:48:22.933Z,16384
2022-10-14T10:49:26.295Z,16548
2022-10-14T10:50:29.147Z,24704
2022-10-14T10:51:32.450Z,35872
2022-10-14T10:52:35.427Z,37856
2022-10-14T10:53:38.575Z,171488
2022-10-14T10:54:41.266Z,212000
2022-10-14T10:55:44.130Z,216544
2022-10-14T10:56:48.538Z,195552
2022-10-14T10:57:51.948Z,83296
2022-10-14T10:58:54.456Z,60480
2022-10-14T10:59:57.654Z,130880
2022-10-14T11:01:00.795Z,139616
2022-10-14T11:02:03.962Z,58720
2022-10-14T11:03:06.903Z,74752
2022-10-14T11:04:10.036Z,119456
2022-10-14T11:05:12.489Z,59264
2022-10-14T11:06:14.699Z,94560
2022-10-14T11:07:17.198Z,95424
2022-10-14T11:08:20.328Z,99808
2022-10-14T11:09:23.674Z,96544
2022-10-14T11:10:27.309Z,97728
2022-10-14T11:11:31.034Z,88512
2022-10-14T11:12:35.167Z,98560
2022-10-14T11:13:38.480Z,99104
2022-10-14T11:14:41.455Z,92640
2022-10-14T11:15:43.953Z,26688
2022-10-14T11:16:46.733Z,29504
2022-10-14T11:17:49.502Z,32288
2022-10-14T11:18:52.438Z,58592
2022-10-14T11:19:55.848Z,22720
2022-10-14T11:20:59.253Z,25312
2022-10-14T11:22:01.610Z,36256
2022-10-14T11:23:04.454Z,87584
2022-10-14T11:24:08.207Z,100320
2022-10-14T11:25:11.274Z,109952
2022-10-14T11:26:13.770Z,97184
2022-10-14T11:27:18.621Z,108480
2022-10-14T11:28:29.990Z,98784
2022-10-14T11:29:33.073Z,109312
2022-10-14T11:30:36.993Z,34048
2022-10-14T11:31:40.445Z,26368
2022-10-14T11:32:43.240Z,22048
2022-10-14T11:33:45.399Z,23552
2022-10-14T11:34:48.760Z,25536
2022-10-14T11:35:52.259Z,28640
2022-10-14T11:36:55.495Z,57568
2022-10-14T11:37:57.745Z,31968
2022-10-14T11:39:00.362Z,34112
2022-10-14T11:40:03.814Z,66720
2022-10-14T11:41:07.753Z,46624
2022-10-14T11:42:10.636Z,32320
2022-10-14T11:43:13.175Z,40416
2022-10-14T11:44:17.556Z,43840
2022-10-14T11:45:21.263Z,48928
2022-10-14T11:46:25.048Z,65280
2022-10-14T11:47:28.203Z,87136
2022-10-14T11:48:31.455Z,75840
2022-10-14T11:49:34.621Z,43904
2022-10-14T11:50:37.686Z,28256
2022-10-14T11:51:41.173Z,27520
2022-10-14T11:52:44.893Z,91104
2022-10-14T11:53:48.972Z,42464
2022-10-14T11:54:51.909Z,58752
2022-10-14T11:55:55.252Z,87776
2022-10-14T11:56:58.217Z,96288
2022-10-14T11:58:01.648Z,37536
2022-10-14T11:59:04.932Z,33792
2022-10-14T12:00:09.080Z,44448
2022-10-14T12:01:12.269Z,60896
2022-10-14T12:02:15.836Z,52416
2022-10-14T12:03:19.137Z,41632
2022-10-14T12:04:22.483Z,31456
2022-10-14T12:05:25.848Z,29792
2022-10-14T12:06:29.191Z,23488
2022-10-14T12:07:32.642Z,39648
2022-10-14T12:08:35.847Z,26752
2022-10-14T12:09:38.716Z,28064
2022-10-14T12:10:41.841Z,64992
2022-10-14T12:11:44.984Z,56160
2022-10-14T12:12:48.537Z,79968
2022-10-14T12:13:51.610Z,32608
2022-10-14T12:14:55.070Z,38752
2022-10-14T12:15:59.240Z,20960
2022-10-14T12:17:03.109Z,80512
2022-10-14T12:18:06.203Z,27616
2022-10-14T12:19:08.922Z,16292
2022-10-14T12:20:12.442Z,20704
2022-10-14T12:21:15.941Z,66880
2022-10-14T12:22:19.686Z,21792
2022-10-14T12:23:25.940Z,15128
2022-10-14T12:24:28.375Z,10144
2022-10-14T12:25:31.828Z,9092
2022-10-14T12:26:35.818Z,6740
2022-10-14T12:27:38.768Z,7104
2022-10-14T12:28:42.236Z,8012
2022-10-14T12:29:46.484Z,8992
2022-10-14T12:30:49.316Z,7684
2022-10-14T12:31:53.425Z,6708
2022-10-14T12:32:56.289Z,6712
2022-10-14T12:33:58.726Z,7388
2022-10-14T12:35:01.895Z,9432
2022-10-14T12:36:05.106Z,14276
2022-10-14T12:37:07.966Z,18072
2022-10-14T12:38:11.155Z,19072
2022-10-14T12:39:14.301Z,16068
2022-10-14T12:40:17.377Z,12084
2022-10-14T12:41:19.631Z,9736
2022-10-14T12:42:23.236Z,8652
2022-10-14T12:43:27.505Z,7016
2022-10-14T12:44:30.318Z,6120
2022-10-14T12:45:32.866Z,5784
2022-10-14T12:46:36.289Z,5932
2022-10-14T12:47:40.476Z,5708
2022-10-14T12:48:43.087Z,4868
2022-10-14T12:49:45.969Z,4596
2022-10-14T12:50:49.464Z,4712
2022-10-14T12:51:52.174Z,4752
2022-10-14T12:52:55.323Z,5092
2022-10-14T12:53:58.773Z,5800
2022-10-14T12:55:02.503Z,6704
2022-10-14T12:56:05.650Z,8344
2022-10-14T12:57:08.534Z,11156
2022-10-14T12:58:11.987Z,14980
2022-10-14T13:00:20.443Z,17384
2022-10-14T13:01:23.384Z,16788
2022-10-14T13:02:26.537Z,19776
2022-10-14T13:03:30.697Z,22304
2022-10-14T13:04:32.748Z,24192
2022-10-14T13:05:35.905Z,27360
2022-10-14T13:06:39.262Z,26208
2022-10-14T13:07:42.354Z,23552
2022-10-14T13:08:48.942Z,20608
2022-10-14T13:09:52.468Z,19584
2022-10-14T13:10:55.331Z,19424
2022-10-14T13:11:58.122Z,18752
2022-10-14T13:13:01.022Z,19552
2022-10-14T13:14:04.813Z,21216
2022-10-14T13:15:08.114Z,23104
2022-10-14T13:16:11.221Z,26880
2022-10-14T13:17:15.624Z,22240
2022-10-14T13:18:19.215Z,12928
2022-10-14T13:19:23.331Z,9844
2022-10-14T13:20:26.211Z,9036
2022-10-14T13:21:29.345Z,8288
2022-10-14T13:22:33.352Z,7844
2022-10-14T13:23:37.472Z,8172
2022-10-14T13:24:40.354Z,8328
2022-10-14T13:25:43.293Z,8148
2022-10-14T13:26:46.645Z,8568
2022-10-14T13:27:49.446Z,9232
2022-10-14T13:28:53.300Z,11152
2022-10-14T13:29:56.588Z,14024
2022-10-14T13:31:00.424Z,16192
2022-10-14T13:32:03.933Z,25632
2022-10-14T13:33:07.637Z,28256
2022-10-14T13:34:11.109Z,20320
2022-10-14T13:35:15.338Z,16916
2022-10-14T13:36:18.527Z,16784
2022-10-14T13:37:21.878Z,17540
2022-10-14T13:38:24.687Z,18172
2022-10-14T13:39:27.519Z,20064
2022-10-14T13:40:30.338Z,28320
2022-10-14T13:41:32.953Z,20608
2022-10-14T13:42:36.061Z,16176
2022-10-14T13:43:38.600Z,16112
2022-10-14T13:44:41.633Z,16408
2022-10-14T13:45:45.195Z,15396
2022-10-14T13:46:48.295Z,19104
2022-10-14T13:47:51.207Z,17068
2022-10-14T13:48:54.667Z,18720
2022-10-14T13:49:57.395Z,16056
2022-10-14T13:51:06.307Z,13516
2022-10-14T13:52:39.826Z,13328
2022-10-14T13:53:43.951Z,9564
2022-10-14T13:54:47.427Z,8276
2022-10-14T13:55:54.201Z,7440
2022-10-14T13:57:06.564Z,6724
2022-10-14T13:59:29.778Z,5580
2022-10-14T14:01:44.797Z,4656
2022-10-14T14:02:51.757Z,4432
2022-10-14T14:04:05.137Z,4744
2022-10-14T14:05:08.479Z,5144
2022-10-14T14:06:12.830Z,5284
2022-10-14T14:07:38.131Z,5768
2022-10-14T14:09:46.478Z,8164
2022-10-14T14:11:11.336Z,9144
2022-10-14T14:12:20.895Z,12108
2022-10-14T14:13:23.505Z,11908
2022-10-14T14:14:26.236Z,17472
2022-10-14T14:15:29.423Z,22432
2022-10-14T14:16:33.227Z,17380
2022-10-14T14:17:37.525Z,11280
2022-10-14T14:18:55.982Z,9436
2022-10-14T14:20:12.802Z,8236
2022-10-14T14:21:17.266Z,7896
2022-10-14T14:22:20.628Z,7768
2022-10-14T14:23:23.342Z,7816
2022-10-14T14:24:26.136Z,7864
2022-10-14T14:25:34.332Z,7896
2022-10-14T14:27:22.484Z,7608
2022-10-14T14:28:27.537Z,7280
2022-10-14T14:29:30.974Z,7084
2022-10-14T14:30:34.405Z,7184
2022-10-14T14:32:01.751Z,7632
2022-10-14T14:33:11.664Z,8608
2022-10-14T14:34:14.376Z,8708
2022-10-14T14:35:19.288Z,8064
2022-10-14T14:36:27.626Z,7492
2022-10-14T14:38:57.931Z,7288
2022-10-14T14:40:01.092Z,7300
2022-10-14T14:41:03.834Z,7408
2022-10-14T14:42:06.904Z,7340